Flight Track Log - Related Links

Times and Time Zones

All times are in EDT time to prevent confusion due to time zone crossing. See the WEW680 flight status page for this flight to view local times or setup timezone preferences in your user account.


Time Position Orientation Groundspeed Altitude Reporting Facility
EDT Latitude Longitude Course Direction KTS MPH feet Rate Location/Type
Fri 12:23:44 PM 58.0500 -103.8167 199° South 180 207 14,000  Level Winnipeg Center
Fri 12:24:44 PM 58.0000 -103.8500 190° South 180 207 15,600 1,550 Climbing Winnipeg Center
Fri 12:25:44 PM 57.9500 -103.8667 190° South 190 219 17,100 1,300 Climbing Winnipeg Center
Fri 12:26:44 PM 57.9000 -103.8833 200° South 190 219 18,200 1,150 Climbing Winnipeg Center
Fri 12:27:44 PM 57.8500 -103.9167 202° Southwest 200 230 19,400 900 Climbing Winnipeg Center
Fri 12:28:44 PM 57.7833 -103.9667 188° South 210 242 20,000 350 Climbing Winnipeg Center
Fri 12:29:44 PM 57.7167 -103.9833 202° Southwest 230 265 20,100  Climbing Winnipeg Center
Fri 12:30:44 PM 57.6500 -104.0333 188° South 250 288 20,000 -50 Descending Winnipeg Center
Fri 12:31:44 PM 57.5833 -104.0500 202° Southwest 250 288 20,000 50 Level Winnipeg Center
Fri 12:32:44 PM 57.5167 -104.1000 208° Southwest 250 288 20,100 50 Climbing Winnipeg Center
Fri 12:33:44 PM 57.4667 -104.1500 188° South 260 299 20,100  Level Winnipeg Center
Fri 12:34:44 PM 57.4000 -104.1667 188° South 250 288 20,100 50 Level Winnipeg Center
Fri 12:35:44 PM 57.3333 -104.1833 198° South 250 288 20,200  Climbing Winnipeg Center
Fri 12:36:44 PM 57.2500 -104.2333 188° South 250 288 20,100 -50 Descending Winnipeg Center
Fri 12:37:44 PM 57.1833 -104.2500 208° Southwest 250 288 20,100 50 Level Winnipeg Center
Fri 12:38:44 PM 57.1333 -104.3000 188° South 250 288 20,200  Climbing Winnipeg Center
Fri 12:39:44 PM 57.0667 -104.3167 202° Southwest 250 288 20,100 -50 Descending Winnipeg Center
Fri 12:40:44 PM 57.0000 -104.3667 202° Southwest 250 288 20,100  Level Winnipeg Center
Fri 12:41:44 PM 56.9333 -104.4167 186° South 240 276 20,100  Level Winnipeg Center
Fri 12:42:44 PM 56.8500 -104.4333 188° South 240 276 20,100  Level Winnipeg Center
Fri 12:43:44 PM 56.7833 -104.4500 209° Southwest 240 276 20,100  Level Winnipeg Center
Fri 12:44:44 PM 56.7333 -104.5000 202° Southwest 240 276 20,100 -50 Level Winnipeg Center
Fri 12:45:44 PM 56.6667 -104.5500 188° South 250 288 20,000  Descending Winnipeg Center
Fri 12:46:44 PM 56.6000 -104.5667 209° Southwest 250 288 20,100 50 Climbing Winnipeg Center
Fri 12:47:44 PM 56.5500 -104.6167 198° South 250 288 20,100  Level Winnipeg Center
Fri 12:48:44 PM 56.4667 -104.6667 188° South 250 288 20,100 -50 Level Winnipeg Center
Fri 12:49:44 PM 56.4000 -104.6833 188° South 250 288 20,000 50 Descending Winnipeg Center
Fri 12:50:44 PM 56.3333 -104.7000 203° Southwest 250 288 20,200 50 Climbing Winnipeg Center
Fri 12:51:44 PM 56.2667 -104.7500 188° South 250 288 20,100 -50 Descending Winnipeg Center
Fri 12:52:44 PM 56.2000 -104.7667 209° Southwest 250 288 20,100 -50 Level Winnipeg Center
Fri 12:53:44 PM 56.1500 -104.8167 196° South 250 288 20,000 -850 Descending Winnipeg Center
Fri 12:54:44 PM 56.0833 -104.8500 186° South 260 299 18,400 -1,500 Descending Winnipeg Center
Fri 12:55:44 PM 56.0000 -104.8667 199° South 260 299 17,000 -1,450 Descending Winnipeg Center
Fri 12:56:44 PM 55.9167 -104.9167 191° South 250 288 15,500 -1,350 Descending Winnipeg Center
Fri 12:57:44 PM 55.8667 -104.9333 203° Southwest 240 276 14,300 -1,100 Descending Winnipeg Center
Fri 12:58:44 PM 55.8000 -104.9833 188° South 240 276 13,300 -1,100 Descending Winnipeg Center
Fri 12:59:44 PM 55.7333 -105.0000 191° South 240 276 12,100 -1,100 Descending Winnipeg Center
Fri 01:00:44 PM 55.6833 -105.0167 203° Southwest 240 276 11,100 -1,000 Descending Winnipeg Center
Fri 01:01:44 PM 55.6167 -105.0667 193° South 240 276 10,100 -900 Descending Winnipeg Center
Fri 01:02:44 PM 55.5333 -105.1000 188° South 240 276 9,300 -900 Descending Winnipeg Center
Fri 01:03:44 PM 55.4667 -105.1167 201° Southwest 240 276 8,300 -1,000 Descending Winnipeg Center
Fri 01:04:44 PM 55.4167 -105.1500 196° South 240 276 7,300 -1,050 Descending Winnipeg Center
Fri 01:05:44 PM 55.3500 -105.1833 188° South 240 276 6,200 -1,200 Descending Winnipeg Center
Fri 01:06:44 PM 55.2833 -105.2000 191° South 240 276 4,900 -1,450 Descending Winnipeg Center
Fri 01:07:44 PM 55.2333 -105.2167 191° South 220 253 3,300 -900 Descending Winnipeg Center
Fri 01:08:44 PM 55.1833 -105.2333 180° South 190 219 3,100 -350 Descending Winnipeg Center
Fri 01:09:44 PM 55.1333 -105.2333 210° Southwest 160 184 2,600 -450 Descending Winnipeg Center
Fri 01:10:44 PM 55.1167 -105.2500 270° West 140 161 2,200 -600 Descending Winnipeg Center
Fri 01:11:44 PM 55.1167 -105.2833 270° West 130 150 1,400 -800 Descending Winnipeg Center

Login

Don't have an account? Register now (free) for customized features, flight alerts, and more!